Time;durP1;ratioP1;P1;durP2;ratioP2;P2;SDS_P1;SDS_P2;PMS_P1;PMS_P2;Temp;Humidity;BMP_temperature;BMP_pressure;BME280_temperature;BME280_humidity;BME280_pressure;Samples;Min_cycle;Max_cycle;Signal;HPM_P1;HPM_P2
2021/09/20 04:31:33;;;;;;;9.60;7.30;;;12.80;99.90;;;;;;5665523;23;20538;-76
2021/09/20 04:33:59;;;;;;;8.17;7.10;;;12.80;99.90;;;;;;5024420;28;20398;-79
2021/09/20 04:36:24;;;;;;;8.00;7.20;;;12.90;99.90;;;;;;5021039;28;20210;-81
2021/09/20 04:38:50;;;;;;;8.80;6.60;;;12.90;99.90;;;;;;5031376;28;20193;-81
2021/09/20 04:41:15;;;;;;;8.00;6.40;;;12.90;99.90;;;;;;5016116;28;20205;-81
2021/09/20 04:43:41;;;;;;;7.17;6.47;;;12.90;99.90;;;;;;5033806;28;20212;-81
2021/09/20 04:46:06;;;;;;;7.70;6.90;;;12.90;99.90;;;;;;5034557;28;20170;-80
2021/09/20 04:48:32;;;;;;;8.70;7.47;;;12.90;99.90;;;;;;5034299;28;20178;-82
2021/09/20 04:50:57;;;;;;;7.87;6.57;;;12.90;99.90;;;;;;5033861;28;20205;-80
2021/09/20 04:53:23;;;;;;;9.60;7.70;;;12.90;99.90;;;;;;5033915;28;20174;-81
2021/09/20 04:55:49;;;;;;;10.40;7.23;;;12.90;99.90;;;;;;5034677;28;20180;-81
2021/09/20 04:58:15;;;;;;;7.70;6.90;;;12.90;99.90;;;;;;5034271;28;20759;-82
2021/09/20 05:00:41;;;;;;;9.20;7.10;;;13.00;99.90;;;;;;5034679;28;20182;-80
2021/09/20 05:03:07;;;;;;;8.67;6.80;;;13.00;99.90;;;;;;5037198;28;20259;-78
2021/09/20 05:05:32;;;;;;;9.30;7.53;;;13.00;99.90;;;;;;5031660;28;20499;-75
2021/09/20 05:07:58;;;;;;;9.53;6.83;;;13.00;99.90;;;;;;5031208;28;20232;-74
2021/09/20 05:10:24;;;;;;;8.87;7.30;;;13.00;99.90;;;;;;5031084;28;20180;-74
2021/09/20 05:12:50;;;;;;;7.07;5.90;;;13.10;99.90;;;;;;5031177;28;20213;-74
2021/09/20 05:15:16;;;;;;;8.80;7.20;;;13.10;99.90;;;;;;5033208;28;20939;-75
2021/09/20 05:17:43;;;;;;;7.60;6.60;;;13.10;99.90;;;;;;5035232;28;20304;-74
2021/09/20 05:20:11;;;;;;;12.27;6.97;;;13.10;99.90;;;;;;5034683;28;20917;-75
2021/09/20 05:22:36;;;;;;;8.17;6.80;;;13.10;99.90;;;;;;5035094;28;20439;-75
2021/09/20 05:25:03;;;;;;;7.83;7.13;;;13.10;99.90;;;;;;5036954;28;20409;-75
2021/09/20 05:27:29;;;;;;;8.63;6.40;;;13.10;99.90;;;;;;5035307;28;20200;-75
2021/09/20 05:29:58;;;;;;;8.07;6.97;;;13.20;99.90;;;;;;5034846;28;20812;-76
2021/09/20 05:32:24;;;;;;;9.70;7.27;;;13.20;99.90;;;;;;5034443;28;20248;-77
2021/09/20 05:34:49;;;;;;;7.97;7.07;;;13.20;99.90;;;;;;5017086;28;20412;-76
2021/09/20 05:37:15;;;;;;;7.67;6.93;;;13.20;99.90;;;;;;5034690;28;20717;-76
2021/09/20 05:39:41;;;;;;;9.63;7.50;;;13.20;99.90;;;;;;5034684;28;20199;-76
2021/09/20 05:42:06;;;;;;;8.97;7.90;;;13.20;99.90;;;;;;5034158;28;20284;-76
2021/09/20 05:44:32;;;;;;;8.77;7.40;;;13.20;99.90;;;;;;5034432;28;20185;-76
2021/09/20 05:46:57;;;;;;;9.93;7.00;;;13.30;99.90;;;;;;5034727;28;20210;-76
2021/09/20 05:49:23;;;;;;;7.73;6.70;;;13.30;99.90;;;;;;5034633;28;20214;-77
2021/09/20 05:51:49;;;;;;;11.47;8.47;;;13.40;99.90;;;;;;5034550;28;20210;-77
2021/09/20 05:54:14;;;;;;;9.20;6.93;;;13.40;99.90;;;;;;5034729;28;20678;-77
2021/09/20 05:56:40;;;;;;;9.70;7.40;;;13.40;99.90;;;;;;5016928;28;20174;-77
2021/09/20 05:59:05;;;;;;;8.87;7.10;;;13.50;99.90;;;;;;5034725;28;20257;-77
2021/09/20 06:01:31;;;;;;;7.77;7.07;;;13.50;99.90;;;;;;5034397;28;20284;-77
2021/09/20 06:03:57;;;;;;;9.67;7.03;;;13.60;99.90;;;;;;5034621;28;20650;-76
2021/09/20 06:06:22;;;;;;;10.13;7.30;;;13.60;99.90;;;;;;5042469;28;20177;-77
2021/09/20 06:08:48;;;;;;;8.27;7.00;;;13.60;99.90;;;;;;5054608;28;20177;-77
2021/09/20 06:11:14;;;;;;;7.70;6.80;;;13.60;99.90;;;;;;5054050;28;20204;-77
2021/09/20 06:13:41;;;;;;;8.40;7.20;;;13.70;99.90;;;;;;5036668;28;20634;-77
2021/09/20 06:16:07;;;;;;;8.63;7.20;;;13.70;99.90;;;;;;5054503;28;20397;-76
2021/09/20 06:18:32;;;;;;;8.80;7.87;;;13.70;99.90;;;;;;5040953;28;20482;-78
2021/09/20 06:20:58;;;;;;;8.63;7.73;;;13.70;99.90;;;;;;5034057;28;20424;-78
2021/09/20 06:23:24;;;;;;;8.10;6.67;;;13.80;99.90;;;;;;5034104;28;20264;-77
2021/09/20 06:25:49;;;;;;;8.33;7.30;;;13.80;99.90;;;;;;5033384;28;20182;-78
2021/09/20 06:28:15;;;;;;;8.60;6.97;;;13.80;99.90;;;;;;5016239;28;20174;-77
2021/09/20 06:30:41;;;;;;;8.13;7.27;;;13.90;99.90;;;;;;5034599;28;20253;-78
2021/09/20 06:33:07;;;;;;;22.50;15.70;;;14.00;99.90;;;;;;5034878;28;20259;-78
2021/09/20 06:35:32;;;;;;;9.40;8.20;;;14.00;99.90;;;;;;5035148;28;20174;-78
2021/09/20 06:37:59;;;;;;;8.70;7.40;;;14.10;99.90;;;;;;5034308;28;20176;-79
2021/09/20 06:40:25;;;;;;;8.67;6.97;;;14.10;99.90;;;;;;5034067;28;20181;-78
2021/09/20 06:42:50;;;;;;;11.30;8.53;;;14.20;99.90;;;;;;5034201;28;20413;-77
2021/09/20 06:45:16;;;;;;;13.73;8.20;;;14.30;99.90;;;;;;5016181;28;20428;-78
2021/09/20 06:47:41;;;;;;;9.73;7.73;;;14.30;99.90;;;;;;5034749;28;20174;-78
2021/09/20 06:50:08;;;;;;;9.40;8.37;;;14.30;99.90;;;;;;5033583;28;20659;-76
2021/09/20 06:52:33;;;;;;;10.23;8.33;;;14.30;99.90;;;;;;5034346;28;20293;-78
2021/09/20 06:54:59;;;;;;;10.80;8.57;;;14.30;99.90;;;;;;5016299;28;20458;-77
2021/09/20 06:57:24;;;;;;;9.13;7.80;;;14.30;99.90;;;;;;5033532;28;20185;-79
2021/09/20 06:59:50;;;;;;;13.17;7.83;;;14.40;99.90;;;;;;5033528;28;20174;-79
2021/09/20 07:02:15;;;;;;;12.63;9.50;;;14.40;99.90;;;;;;5033024;28;20194;-79
2021/09/20 07:04:41;;;;;;;18.27;9.70;;;14.50;99.90;;;;;;5033248;28;20175;-79
2021/09/20 07:07:06;;;;;;;14.53;9.53;;;14.40;99.90;;;;;;5033459;28;20173;-79
2021/09/20 07:09:32;;;;;;;13.40;9.00;;;14.50;99.90;;;;;;5033453;28;20190;-79
2021/09/20 07:11:57;;;;;;;11.33;8.33;;;14.50;99.90;;;;;;5033501;28;20690;-79
2021/09/20 07:14:23;;;;;;;12.30;9.20;;;14.60;99.90;;;;;;5035070;28;20231;-79
2021/09/20 07:16:49;;;;;;;14.17;10.00;;;14.60;99.90;;;;;;5033813;28;20647;-79
2021/09/20 07:19:14;;;;;;;14.37;9.43;;;14.60;99.90;;;;;;5033060;28;20170;-78
2021/09/20 07:21:40;;;;;;;11.13;8.40;;;14.70;99.90;;;;;;5015522;28;20200;-79
2021/09/20 07:24:05;;;;;;;14.00;9.67;;;14.70;99.90;;;;;;5033852;28;20178;-79
2021/09/20 07:26:31;;;;;;;14.93;10.23;;;14.80;99.90;;;;;;5033939;28;20174;-79
2021/09/20 07:28:58;;;;;;;16.47;10.20;;;14.80;99.90;;;;;;5033935;28;20202;-79
2021/09/20 07:31:24;;;;;;;12.80;10.33;;;14.80;99.90;;;;;;5033037;28;20225;-79
2021/09/20 07:33:50;;;;;;;16.80;10.13;;;14.90;99.90;;;;;;5033353;28;20415;-79
2021/09/20 07:36:16;;;;;;;16.13;9.37;;;14.90;99.90;;;;;;5033497;28;20502;-78
2021/09/20 07:38:42;;;;;;;14.37;10.20;;;15.00;99.90;;;;;;5032422;28;20499;-79
2021/09/20 07:41:08;;;;;;;17.40;14.47;;;15.10;99.90;;;;;;5032758;28;20198;-79
2021/09/20 07:43:33;;;;;;;14.67;10.97;;;15.10;99.90;;;;;;5032943;28;20415;-79
2021/09/20 07:46:00;;;;;;;22.43;10.13;;;15.10;99.90;;;;;;5033534;28;20424;-79
2021/09/20 07:48:27;;;;;;;13.30;9.53;;;15.20;99.90;;;;;;5033211;28;20554;-78
2021/09/20 07:50:53;;;;;;;19.97;9.30;;;15.20;99.90;;;;;;5014982;28;20460;-79
2021/09/20 07:53:18;;;;;;;15.10;11.07;;;15.30;99.90;;;;;;5032656;28;20496;-76
2021/09/20 07:55:44;;;;;;;17.63;10.10;;;15.30;99.90;;;;;;5020587;28;20451;-77
2021/09/20 07:58:12;;;;;;;19.87;11.10;;;15.30;99.90;;;;;;5023031;28;20261;-76
2021/09/20 08:00:40;;;;;;;15.30;10.73;;;15.30;99.90;;;;;;5017836;28;20414;-77
2021/09/20 08:03:08;;;;;;;13.97;9.93;;;15.40;99.90;;;;;;5020396;28;20450;-77
2021/09/20 08:05:34;;;;;;;14.40;9.27;;;15.50;99.90;;;;;;5027336;28;20948;-78
2021/09/20 08:08:00;;;;;;;17.77;10.93;;;15.60;99.90;;;;;;5032198;28;20544;-77
2021/09/20 08:10:25;;;;;;;13.67;10.30;;;15.60;99.90;;;;;;5033024;28;20179;-78
2021/09/20 08:12:51;;;;;;;13.00;9.80;;;15.70;99.90;;;;;;5032094;28;20210;-78
2021/09/20 08:15:16;;;;;;;13.90;10.00;;;15.80;99.90;;;;;;5028766;28;20889;-79
2021/09/20 08:17:42;;;;;;;14.97;11.07;;;15.80;99.90;;;;;;5032058;28;20174;-78
2021/09/20 08:20:10;;;;;;;15.20;9.67;;;16.00;99.90;;;;;;5031475;28;20177;-78
2021/09/20 08:22:36;;;;;;;14.50;9.70;;;15.90;99.90;;;;;;5014236;28;20208;-77
2021/09/20 08:25:02;;;;;;;13.87;9.83;;;16.00;99.90;;;;;;5014205;28;20947;-78
2021/09/20 08:27:28;;;;;;;17.47;10.30;;;16.10;99.90;;;;;;5030468;28;20520;-76
2021/09/20 08:29:53;;;;;;;14.47;10.03;;;16.10;99.90;;;;;;5030340;28;20425;-78
2021/09/20 08:32:19;;;;;;;13.83;9.97;;;16.10;99.90;;;;;;5013506;28;20212;-78
2021/09/20 08:34:45;;;;;;;20.70;11.30;;;16.10;99.90;;;;;;5031960;28;20232;-78
2021/09/20 08:37:11;;;;;;;14.90;11.33;;;16.00;99.90;;;;;;5031690;28;20417;-77
2021/09/20 08:39:36;;;;;;;18.23;11.13;;;16.10;99.90;;;;;;5031288;28;20827;-76
2021/09/20 08:42:03;;;;;;;17.80;10.87;;;16.20;99.90;;;;;;5031501;28;20218;-78
2021/09/20 08:44:28;;;;;;;14.43;11.30;;;16.20;99.90;;;;;;5031341;28;20172;-78
2021/09/20 08:46:55;;;;;;;15.37;11.60;;;16.30;99.90;;;;;;5031677;28;20508;-78
2021/09/20 08:49:22;;;;;;;16.80;12.00;;;16.40;99.90;;;;;;5030671;28;20181;-79
2021/09/20 08:51:50;;;;;;;16.97;11.37;;;16.50;99.90;;;;;;5032136;28;20847;-78
2021/09/20 08:54:17;;;;;;;14.30;10.20;;;16.50;99.90;;;;;;5030429;28;20442;-79
2021/09/20 08:56:43;;;;;;;17.30;11.33;;;16.60;99.90;;;;;;5031531;28;20419;-76
2021/09/20 08:59:08;;;;;;;13.67;10.87;;;16.50;99.90;;;;;;5030781;28;20412;-78
2021/09/20 09:01:35;;;;;;;12.80;10.33;;;16.60;99.90;;;;;;5031116;28;20280;-78
2021/09/20 09:04:40;;;;;;;14.97;11.50;;;16.70;99.90;;;;;;5031165;28;20736;-76
2021/09/20 09:07:09;;;;;;;18.20;11.17;;;16.70;99.90;;;;;;4931740;29;20421;-78
2021/09/20 09:09:43;;;;;;;15.10;11.50;;;16.90;99.90;;;;;;4931583;29;20421;-78
2021/09/20 09:12:23;;;;;;;14.00;11.07;;;16.80;99.90;;;;;;4986504;28;20480;-76
2021/09/20 09:14:53;;;;;;;15.00;10.67;;;16.80;99.90;;;;;;5031917;28;20404;-78
2021/09/20 09:17:34;;;;;;;16.63;11.30;;;16.90;99.90;;;;;;5031561;28;20412;-77
2021/09/20 09:20:13;;;;;;;17.10;11.70;;;16.80;99.90;;;;;;5031801;28;20420;-80
2021/09/20 09:22:46;;;;;;;13.77;12.10;;;16.90;99.90;;;;;;5031007;28;20458;-74
2021/09/20 09:25:16;;;;;;;17.50;14.17;;;17.00;99.90;;;;;;5010524;28;20925;-76
2021/09/20 09:27:42;;;;;;;14.60;11.00;;;16.90;99.90;;;;;;5030573;28;20400;-77
2021/09/20 09:30:09;;;;;;;16.40;11.40;;;16.80;99.90;;;;;;5030302;28;20510;-76
2021/09/20 09:32:36;;;;;;;21.03;13.17;;;16.70;99.90;;;;;;5012896;28;20517;-76
2021/09/20 09:35:06;;;;;;;18.67;12.73;;;16.70;99.90;;;;;;5013387;28;20451;-78
2021/09/20 09:37:34;;;;;;;17.30;12.57;;;16.70;99.90;;;;;;5030960;28;20749;-77
2021/09/20 09:40:21;;;;;;;18.67;12.70;;;16.80;99.90;;;;;;5012548;28;20416;-76
2021/09/20 09:42:49;;;;;;;17.40;11.97;;;16.80;99.90;;;;;;5030012;28;20807;-76
2021/09/20 09:45:32;;;;;;;16.20;12.63;;;16.80;99.90;;;;;;5030398;28;20903;-77
2021/09/20 09:48:17;;;;;;;19.03;13.77;;;16.80;99.90;;;;;;5030604;28;20419;-76
2021/09/20 09:50:46;;;;;;;15.13;12.80;;;16.80;99.90;;;;;;5030310;28;20417;-76
2021/09/20 09:53:24;;;;;;;17.30;13.80;;;16.70;99.90;;;;;;5030652;28;20807;-76
2021/09/20 09:55:49;;;;;;;17.00;12.27;;;16.70;99.90;;;;;;5030832;28;20917;-75
2021/09/20 09:58:16;;;;;;;17.67;13.70;;;16.80;99.90;;;;;;5030240;28;20486;-76
2021/09/20 10:00:44;;;;;;;18.53;14.10;;;16.90;99.90;;;;;;5031545;28;20438;-76
2021/09/20 10:03:09;;;;;;;19.03;13.60;;;16.80;99.90;;;;;;5034057;28;20413;-76
2021/09/20 10:05:35;;;;;;;15.80;12.50;;;16.80;99.90;;;;;;5034317;28;20469;-76
2021/09/20 10:08:11;;;;;;;19.10;13.67;;;16.80;99.90;;;;;;5033305;28;20240;-75
2021/09/20 10:10:37;;;;;;;17.87;14.13;;;16.70;99.90;;;;;;5033604;28;20170;-76
2021/09/20 10:13:04;;;;;;;18.60;13.87;;;16.60;99.90;;;;;;5033690;28;20468;-76
2021/09/20 10:15:32;;;;;;;20.17;14.17;;;16.60;99.90;;;;;;5034013;28;20413;-75
2021/09/20 10:17:59;;;;;;;19.63;14.60;;;16.60;99.90;;;;;;5033906;28;20416;-76
2021/09/20 10:20:26;;;;;;;18.90;14.07;;;16.70;99.90;;;;;;5016211;28;20844;-75
2021/09/20 10:22:52;;;;;;;20.70;14.20;;;16.80;99.90;;;;;;5033884;28;20435;-74
2021/09/20 10:25:21;;;;;;;22.50;14.30;;;17.00;99.90;;;;;;5033829;28;20913;-76
2021/09/20 10:27:48;;;;;;;19.67;14.50;;;17.00;99.90;;;;;;5034104;28;20775;-75
2021/09/20 10:30:19;;;;;;;19.83;13.47;;;17.10;99.90;;;;;;5033098;28;20972;-76
2021/09/20 10:32:54;;;;;;;18.60;13.07;;;17.10;99.90;;;;;;5033384;28;21072;-76
2021/09/20 10:35:27;;;;;;;17.20;13.37;;;17.20;99.90;;;;;;5033675;28;20499;-76
2021/09/20 10:37:56;;;;;;;18.27;13.07;;;17.20;99.90;;;;;;5033558;28;20409;-76
2021/09/20 10:40:22;;;;;;;19.17;13.97;;;17.20;99.90;;;;;;5032704;28;20412;-76
2021/09/20 10:42:49;;;;;;;18.97;13.20;;;17.30;99.90;;;;;;5032969;28;20436;-76
2021/09/20 10:45:36;;;;;;;15.87;12.73;;;17.30;99.90;;;;;;5033088;28;20197;-76
2021/09/20 10:48:14;;;;;;;14.70;12.73;;;17.30;99.90;;;;;;5033199;28;20460;-77
2021/09/20 10:51:02;;;;;;;15.00;12.30;;;17.20;99.90;;;;;;5014851;28;20420;-76
2021/09/20 10:53:33;;;;;;;15.83;11.63;;;17.20;99.90;;;;;;5033257;28;20449;-76
2021/09/20 10:56:02;;;;;;;17.10;12.73;;;17.30;99.90;;;;;;5033146;28;20412;-76
2021/09/20 10:58:31;;;;;;;14.70;11.83;;;17.30;99.90;;;;;;5032973;28;20832;-76
2021/09/20 11:01:12;;;;;;;17.20;12.53;;;17.40;99.90;;;;;;5032529;28;20443;-76
2021/09/20 11:03:42;;;;;;;15.37;12.07;;;17.40;99.90;;;;;;5032991;28;20933;-76
2021/09/20 11:06:30;;;;;;;14.23;10.80;;;17.50;99.90;;;;;;5033354;28;20780;-75
2021/09/20 11:08:59;;;;;;;17.10;11.70;;;17.60;99.90;;;;;;5032444;28;20447;-77
2021/09/20 11:11:36;;;;;;;13.73;11.63;;;17.70;99.90;;;;;;5032469;28;21094;-76
2021/09/20 11:14:05;;;;;;;12.90;11.03;;;17.90;99.90;;;;;;5032168;28;20420;-75
2021/09/20 11:16:46;;;;;;;17.00;13.10;;;18.10;99.90;;;;;;5032948;28;20495;-76
2021/09/20 11:19:24;;;;;;;20.90;13.37;;;18.20;99.90;;;;;;5031982;28;20408;-77
2021/09/20 11:22:12;;;;;;;17.03;12.77;;;18.30;99.90;;;;;;5032503;28;20440;-77
2021/09/20 11:24:45;;;;;;;29.70;12.63;;;18.30;99.90;;;;;;5032554;28;20412;-77
2021/09/20 11:27:16;;;;;;;20.77;12.70;;;18.30;99.90;;;;;;5032455;28;20930;-76
2021/09/20 11:29:48;;;;;;;19.77;12.20;;;18.30;99.90;;;;;;5032036;28;20416;-77
2021/09/20 11:32:14;;;;;;;21.67;12.53;;;18.40;99.90;;;;;;5031669;28;20476;-77
2021/09/20 11:34:43;;;;;;;18.33;13.40;;;18.40;99.90;;;;;;5032562;28;20763;-76
2021/09/20 11:37:19;;;;;;;18.20;13.90;;;18.40;99.90;;;;;;5032157;28;20212;-77
2021/09/20 11:39:54;;;;;;;22.03;13.03;;;18.30;99.90;;;;;;5031852;28;20427;-76
2021/09/20 11:42:22;;;;;;;19.33;13.40;;;18.50;99.90;;;;;;5031800;28;20438;-76
2021/09/20 11:44:53;;;;;;;15.47;12.53;;;18.60;99.90;;;;;;5032262;28;20504;-76
2021/09/20 11:47:22;;;;;;;16.27;13.10;;;18.70;99.90;;;;;;5032060;28;20419;-77
2021/09/20 11:49:51;;;;;;;12.90;11.50;;;19.00;99.90;;;;;;5031574;28;20416;-77
2021/09/20 11:52:33;;;;;;;19.53;13.13;;;19.20;99.90;;;;;;5031530;28;20468;-76
2021/09/20 11:54:59;;;;;;;17.60;12.60;;;19.40;99.90;;;;;;5032082;28;20412;-75
2021/09/20 11:57:29;;;;;;;17.80;12.17;;;19.50;99.90;;;;;;5031956;28;20471;-75
2021/09/20 12:00:05;;;;;;;16.93;12.67;;;19.40;99.90;;;;;;5013907;28;20467;-76
2021/09/20 12:02:34;;;;;;;15.70;12.23;;;19.40;99.90;;;;;;5031770;28;20506;-77
2021/09/20 12:05:01;;;;;;;17.60;12.63;;;19.50;99.90;;;;;;5031957;28;20413;-77
2021/09/20 12:07:36;;;;;;;15.90;12.97;;;19.60;99.90;;;;;;5032112;28;20416;-77
2021/09/20 12:10:04;;;;;;;15.33;11.80;;;19.50;99.90;;;;;;5031471;28;20416;-76
2021/09/20 12:12:31;;;;;;;15.17;12.00;;;19.40;99.90;;;;;;5031623;28;20478;-77
2021/09/20 12:15:00;;;;;;;13.77;11.37;;;19.20;99.90;;;;;;5031707;28;20400;-77
2021/09/20 12:18:02;;;;;;;15.77;13.37;;;19.20;99.90;;;;;;5031873;28;21162;-77
2021/09/20 12:20:35;;;;;;;14.50;11.97;;;19.20;99.90;;;;;;5013551;28;20412;-77
2021/09/20 12:23:05;;;;;;;16.70;12.57;;;19.10;99.90;;;;;;5031533;28;20417;-77
2021/09/20 12:25:41;;;;;;;17.03;11.43;;;18.90;99.90;;;;;;5031394;28;20420;-77
2021/09/20 12:28:25;;;;;;;15.90;11.97;;;18.80;99.90;;;;;;5032320;28;20412;-77
2021/09/20 12:31:04;;;;;;;13.40;11.57;;;18.90;99.90;;;;;;5030828;28;20486;-76
2021/09/20 12:33:54;;;;;;;12.33;9.90;;;18.80;99.90;;;;;;5031678;28;20416;-77
2021/09/20 12:36:26;;;;;;;11.90;9.93;;;18.80;99.90;;;;;;5031480;28;20405;-77
2021/09/20 12:39:12;;;;;;;15.70;10.47;;;18.90;99.90;;;;;;5030290;28;20405;-76
2021/09/20 12:41:44;;;;;;;15.27;12.63;;;19.00;99.90;;;;;;5029002;28;20968;-77
2021/09/20 12:44:13;;;;;;;17.53;12.03;;;19.00;99.90;;;;;;5010973;28;20944;-78
2021/09/20 12:46:40;;;;;;;13.50;10.13;;;19.00;99.90;;;;;;5035360;28;20408;-77
2021/09/20 12:49:07;;;;;;;13.27;10.93;;;19.20;99.90;;;;;;5031393;28;20416;-77
2021/09/20 12:51:40;;;;;;;14.10;11.43;;;19.30;99.90;;;;;;5031026;28;20584;-77
2021/09/20 12:54:24;;;;;;;17.80;9.80;;;19.40;99.90;;;;;;5031206;28;20819;-77
2021/09/20 12:56:52;;;;;;;13.00;10.60;;;19.30;99.90;;;;;;5031231;28;20417;-77
2021/09/20 12:59:18;;;;;;;12.47;10.70;;;19.20;99.90;;;;;;5012918;28;20420;-77
2021/09/20 13:01:46;;;;;;;12.43;10.63;;;19.20;99.90;;;;;;5030773;28;20452;-77
2021/09/20 13:04:29;;;;;;;13.40;9.97;;;19.30;99.90;;;;;;5013393;28;20224;-76
2021/09/20 13:07:10;;;;;;;11.50;10.30;;;19.30;99.90;;;;;;5031463;28;20875;-76
2021/09/20 13:09:35;;;;;;;13.30;11.13;;;19.20;99.90;;;;;;5030589;28;20416;-77
2021/09/20 13:12:10;;;;;;;14.90;11.57;;;19.20;99.90;;;;;;5030724;28;20463;-76
2021/09/20 13:14:57;;;;;;;15.27;10.17;;;19.40;99.90;;;;;;5013655;28;20174;-76
2021/09/20 13:17:31;;;;;;;13.93;9.70;;;19.50;99.90;;;;;;5030989;28;20928;-77
2021/09/20 13:20:02;;;;;;;10.70;8.67;;;19.40;99.90;;;;;;5030685;28;20806;-77
2021/09/20 13:22:28;;;;;;;11.20;9.83;;;19.40;99.90;;;;;;5030628;28;20436;-77
2021/09/20 13:24:54;;;;;;;11.37;10.20;;;19.30;99.90;;;;;;5031015;28;20416;-78
2021/09/20 13:27:20;;;;;;;18.10;11.10;;;19.30;99.90;;;;;;5031296;28;20651;-77
2021/09/20 13:29:47;;;;;;;11.57;8.70;;;19.10;99.90;;;;;;5012788;28;20273;-77
2021/09/20 13:32:13;;;;;;;8.47;7.67;;;19.10;99.90;;;;;;5030104;28;21005;-76
2021/09/20 13:34:39;;;;;;;8.40;7.43;;;19.30;99.90;;;;;;5030972;28;20408;-77
2021/09/20 13:37:05;;;;;;;10.33;7.33;;;19.30;99.90;;;;;;5032353;28;20408;-76
2021/09/20 13:39:30;;;;;;;9.33;7.97;;;19.40;99.90;;;;;;5033500;28;20178;-76
2021/09/20 13:41:57;;;;;;;9.53;8.57;;;19.40;99.90;;;;;;5034167;28;20216;-76
2021/09/20 13:44:22;;;;;;;7.17;6.40;;;19.60;99.90;;;;;;5034492;28;20174;-76
2021/09/20 13:46:48;;;;;;;10.60;8.60;;;19.70;99.90;;;;;;5016792;28;20427;-76
2021/09/20 13:49:14;;;;;;;9.13;8.23;;;19.80;99.90;;;;;;5032469;28;20209;-77
2021/09/20 13:51:39;;;;;;;9.73;8.03;;;19.80;99.90;;;;;;5034050;28;20206;-76
2021/09/20 13:54:05;;;;;;;12.80;9.47;;;19.80;99.90;;;;;;5016279;28;20428;-76
2021/09/20 13:56:31;;;;;;;8.40;7.60;;;19.70;99.90;;;;;;5034574;28;20237;-76
2021/09/20 13:58:57;;;;;;;7.93;7.13;;;19.50;99.90;;;;;;5033924;28;20181;-76
2021/09/20 14:01:25;;;;;;;8.67;7.87;;;19.40;99.90;;;;;;5033782;28;20441;-77
2021/09/20 14:03:53;;;;;;;10.07;7.90;;;19.40;99.90;;;;;;5033161;28;20341;-76
2021/09/20 14:06:19;;;;;;;9.17;8.27;;;19.40;99.90;;;;;;5033953;28;20976;-78
2021/09/20 14:08:45;;;;;;;8.67;6.97;;;19.30;99.90;;;;;;5032212;28;20471;-77
2021/09/20 14:11:12;;;;;;;8.47;7.67;;;19.30;99.90;;;;;;5033582;28;20945;-77
2021/09/20 14:13:39;;;;;;;8.10;7.37;;;19.30;99.90;;;;;;5014409;28;20171;-77
2021/09/20 14:16:05;;;;;;;8.23;7.43;;;19.40;99.90;;;;;;5014347;28;20840;-76
2021/09/20 14:18:31;;;;;;;8.37;7.00;;;19.60;99.90;;;;;;5014464;28;20414;-77
2021/09/20 14:20:56;;;;;;;7.73;7.03;;;19.60;99.90;;;;;;5027053;28;20929;-77
2021/09/20 14:23:22;;;;;;;7.10;6.50;;;19.50;99.90;;;;;;5034037;28;20662;-77
2021/09/20 14:25:48;;;;;;;10.23;8.47;;;19.50;99.90;;;;;;5033077;28;20178;-77
2021/09/20 14:28:16;;;;;;;10.33;8.10;;;19.70;99.90;;;;;;5034223;28;20257;-76
2021/09/20 14:30:43;;;;;;;9.40;8.47;;;19.60;99.90;;;;;;5033467;28;20173;-76
2021/09/20 14:33:08;;;;;;;8.30;7.60;;;19.60;99.90;;;;;;5015673;28;20491;-77
2021/09/20 14:35:34;;;;;;;15.77;13.87;;;19.50;99.90;;;;;;5034541;28;20835;-77
2021/09/20 14:38:00;;;;;;;9.00;8.20;;;19.40;99.90;;;;;;5033844;28;20785;-76
2021/09/20 14:40:29;;;;;;;9.80;8.90;;;19.30;99.90;;;;;;5033301;28;20174;-76
2021/09/20 14:42:55;;;;;;;11.47;10.27;;;19.10;99.90;;;;;;5033381;28;20174;-77
2021/09/20 14:45:22;;;;;;;11.13;9.50;;;19.00;99.90;;;;;;5034506;28;20500;-78
2021/09/20 14:47:49;;;;;;;10.87;9.73;;;18.80;99.90;;;;;;5032959;28;20499;-76
2021/09/20 14:50:17;;;;;;;10.13;9.13;;;18.70;99.90;;;;;;5032949;28;20486;-76
2021/09/20 14:52:43;;;;;;;11.57;9.00;;;18.70;99.90;;;;;;5033043;28;20482;-77
2021/09/20 14:55:10;;;;;;;10.20;9.30;;;18.70;99.90;;;;;;5031132;28;20519;-79
2021/09/20 14:57:36;;;;;;;10.37;9.27;;;18.70;99.90;;;;;;5034226;28;20569;-77
2021/09/20 15:00:05;;;;;;;10.47;9.33;;;18.60;99.90;;;;;;5033313;28;20417;-77
2021/09/20 15:02:32;;;;;;;9.47;8.63;;;18.50;99.90;;;;;;5034195;28;20202;-77
2021/09/20 15:04:57;;;;;;;8.23;7.60;;;18.40;99.90;;;;;;5034827;28;20429;-78
2021/09/20 15:07:23;;;;;;;10.33;9.30;;;18.50;99.90;;;;;;5035221;28;20471;-78
2021/09/20 15:09:48;;;;;;;10.37;9.37;;;18.40;99.90;;;;;;5016441;28;20261;-77
2021/09/20 15:12:14;;;;;;;10.07;9.13;;;18.30;99.90;;;;;;5033881;28;20249;-77
2021/09/20 15:14:40;;;;;;;10.10;9.00;;;18.30;99.90;;;;;;5032689;28;20657;-78
2021/09/20 15:17:05;;;;;;;9.17;7.40;;;18.30;99.90;;;;;;5034014;28;20193;-78
2021/09/20 15:19:31;;;;;;;9.57;8.63;;;18.20;99.90;;;;;;5035325;28;20297;-79
2021/09/20 15:21:56;;;;;;;9.70;8.70;;;18.20;99.90;;;;;;5029191;28;20218;-79
2021/09/20 15:24:24;;;;;;;9.13;8.17;;;18.30;99.90;;;;;;5036268;28;20651;-79
2021/09/20 15:26:50;;;;;;;9.13;8.33;;;18.40;99.90;;;;;;5035391;28;20166;-79
2021/09/20 15:29:16;;;;;;;11.60;10.50;;;18.40;99.90;;;;;;5036087;28;20416;-79
2021/09/20 15:31:41;;;;;;;18.40;8.13;;;18.30;99.90;;;;;;5001471;28;20468;-79
2021/09/20 15:34:07;;;;;;;9.93;7.90;;;18.20;99.90;;;;;;5016633;28;20257;-79
2021/09/20 15:36:33;;;;;;;9.87;8.87;;;18.20;99.90;;;;;;5015266;28;20184;-79
2021/09/20 15:38:58;;;;;;;11.73;9.73;;;18.10;99.90;;;;;;5015140;28;20228;-78
2021/09/20 15:41:25;;;;;;;10.10;9.10;;;18.20;99.90;;;;;;5033803;28;20205;-77
2021/09/20 15:43:51;;;;;;;9.93;8.57;;;18.20;99.90;;;;;;5034202;28;20228;-78
2021/09/20 15:46:17;;;;;;;9.70;8.80;;;18.20;99.90;;;;;;5033437;28;20417;-78
2021/09/20 15:48:42;;;;;;;8.10;7.37;;;18.10;99.90;;;;;;5033482;28;20724;-78
2021/09/20 15:51:08;;;;;;;9.23;8.30;;;18.00;99.90;;;;;;5033350;28;20432;-77
2021/09/20 15:53:34;;;;;;;11.83;9.33;;;18.00;99.90;;;;;;5033927;28;20258;-78
2021/09/20 15:56:00;;;;;;;9.57;8.60;;;18.00;99.90;;;;;;5032420;28;20539;-78
2021/09/20 15:58:25;;;;;;;11.80;8.43;;;17.90;99.90;;;;;;5026011;28;20190;-79
2021/09/20 16:00:51;;;;;;;10.40;9.40;;;17.90;99.90;;;;;;5024022;28;20226;-77
2021/09/20 16:03:17;;;;;;;10.77;8.80;;;17.90;99.90;;;;;;5028897;28;20252;-78
2021/09/20 16:05:46;;;;;;;9.60;8.70;;;17.90;99.90;;;;;;5025979;28;20200;-77
2021/09/20 16:08:15;;;;;;;8.87;7.97;;;17.80;99.90;;;;;;5019998;28;20421;-77
2021/09/20 16:10:41;;;;;;;9.73;8.73;;;17.70;99.90;;;;;;5023515;28;20782;-77
2021/09/20 16:13:07;;;;;;;9.90;8.83;;;17.70;99.90;;;;;;5020189;28;20476;-77
2021/09/20 16:15:33;;;;;;;16.53;9.10;;;17.70;99.90;;;;;;5022541;28;20162;-77
2021/09/20 16:17:59;;;;;;;11.60;9.40;;;17.60;99.90;;;;;;5022546;28;20401;-77
2021/09/20 16:20:25;;;;;;;11.83;9.13;;;17.60;99.90;;;;;;5022030;28;20183;-78
2021/09/20 16:22:52;;;;;;;9.70;8.70;;;17.50;99.90;;;;;;5020247;28;20434;-77
2021/09/20 16:25:19;;;;;;;17.83;10.13;;;17.40;99.90;;;;;;5003982;28;20433;-78
2021/09/20 16:27:46;;;;;;;9.03;8.13;;;17.30;99.90;;;;;;5023359;28;20930;-78
2021/09/20 16:30:12;;;;;;;10.47;9.20;;;17.30;99.90;;;;;;5020305;28;20475;-78
2021/09/20 16:32:39;;;;;;;12.60;9.17;;;17.20;99.90;;;;;;5021598;28;20993;-77
2021/09/20 16:35:05;;;;;;;13.60;9.83;;;17.20;99.90;;;;;;5022141;28;20489;-77
2021/09/20 16:37:33;;;;;;;9.47;8.47;;;17.20;99.90;;;;;;5021507;28;20409;-78
2021/09/20 16:39:59;;;;;;;16.03;10.53;;;17.20;99.90;;;;;;5021634;28;20412;-78
2021/09/20 16:42:29;;;;;;;11.33;10.20;;;17.10;99.90;;;;;;5004127;28;20820;-77
2021/09/20 16:44:55;;;;;;;10.90;9.77;;;17.00;99.90;;;;;;5023821;28;20423;-78
2021/09/20 16:47:20;;;;;;;12.30;9.63;;;17.00;99.90;;;;;;5032257;28;20452;-78
2021/09/20 16:49:46;;;;;;;11.00;9.47;;;16.90;99.90;;;;;;5031504;28;20817;-78
2021/09/20 16:52:13;;;;;;;13.47;9.90;;;16.80;99.90;;;;;;5031211;28;20584;-77
2021/09/20 16:54:40;;;;;;;11.47;9.33;;;16.80;99.90;;;;;;5031980;28;20412;-77
2021/09/20 16:57:06;;;;;;;10.07;9.00;;;16.70;99.90;;;;;;5031757;28;20412;-78
2021/09/20 16:59:33;;;;;;;12.27;8.90;;;16.70;99.90;;;;;;5031514;28;20487;-78
2021/09/20 17:02:01;;;;;;;16.20;10.50;;;16.70;99.90;;;;;;5030951;28;20805;-77
2021/09/20 17:04:27;;;;;;;10.87;9.47;;;16.60;99.90;;;;;;5031371;28;20451;-77
2021/09/20 17:06:53;;;;;;;14.90;12.17;;;16.60;99.90;;;;;;5031637;28;20447;-78
2021/09/20 17:09:18;;;;;;;10.83;9.73;;;16.50;99.90;;;;;;5036455;28;20570;-78
2021/09/20 17:11:44;;;;;;;11.33;9.17;;;16.50;99.90;;;;;;5046229;28;20223;-78